This is the latest recevied weather packets stored in our database for station/object OK2CME-6. If no packets are shown the sender has not sent any weather packets the latest 10 day(s).
| Time | Temp. | Humidity | Pressure | Rain* | Wind** | Luminosity | Snow |
|---|---|---|---|---|---|---|---|
| 1788084444 | 22.78° C | 51% | 1021.8 hPa | 0 mm | - | 568 W/m² | - |
| 1788083244 | 22.78° C | 52% | 1021.9 hPa | 0 mm | - | 548 W/m² | - |
| 1788082044 | 22.78° C | 53% | 1021.9 hPa | 0 mm | - | 524 W/m² | - |
| 1788080844 | 22.22° C | 56% | 1022.5 hPa | 0 mm | - | 496 W/m² | - |
| 1788079644 | 21.67° C | 55% | 1022.1 hPa | 0 mm | - | 461 W/m² | - |
| 1788078444 | 21.67° C | 56% | 1022.1 hPa | 0 mm | - | 421 W/m² | - |
| 1788077244 | 21.67° C | 58% | 1022.1 hPa | 0 mm | - | 380 W/m² | - |
| 1788076043 | 21.67° C | 59% | 1021.8 hPa | 0 mm | - | 340 W/m² | - |
| 1788074844 | 21.11° C | 61% | 1021.8 hPa | 0 mm | - | 294 W/m² | - |
| 1788073644 | 20° C | 65% | 1021.5 hPa | 0 mm | - | 249 W/m² | - |
| 1788072443 | 20.56° C | 63% | 1021.7 hPa | 0 mm | - | 202 W/m² | - |
| 1788071243 | 19.44° C | 68% | 1021.5 hPa | 0 mm | - | 156 W/m² | - |
| 1788070043 | 18.33° C | 70% | 1021.6 hPa | 0 mm | - | 115 W/m² | - |
| 1788068843 | 17.78° C | 71% | 1021.4 hPa | 0 mm | - | 78 W/m² | - |
| 1788067644 | 18.33° C | 70% | 1021.5 hPa | 0 mm | - | 47 W/m² | - |
| 1788066444 | 17.22° C | 72% | 1021.4 hPa | 0 mm | - | 27 W/m² | - |
| 1788065243 | 16.67° C | 73% | 1021.3 hPa | 0 mm | - | 12 W/m² | - |
| 1788064043 | 16.67° C | 71% | 1021.3 hPa | 0 mm | - | 3 W/m² | - |
| 1788062843 | 16.11° C | 71% | 1021.3 hPa | 0 mm | - | 0 W/m² | - |
| 1788061643 | 17.22° C | 66% | 1021.4 hPa | 0 mm | - | 0 W/m² | - |
| 1788060443 | 16.67° C | 66% | 1021.2 hPa | 0 mm | - | 0 W/m² | - |
* Rain latest hour (hover to see other rain measurements)
** Current wind speed in m/s (hover to see current wind gust speed)